sensor_id;sensor_type;location;lat;lon;timestamp;temperature;humidity
28069;DHT22;15382;47.578;8.086;2022-11-20T00:04:51;5.40;99.90
28069;DHT22;15382;47.578;8.086;2022-11-20T00:14:52;5.40;99.90
28069;DHT22;15382;47.578;8.086;2022-11-20T00:24:53;5.30;99.90
28069;DHT22;15382;47.578;8.086;2022-11-20T00:34:53;5.40;99.90
28069;DHT22;15382;47.578;8.086;2022-11-20T00:44:54;5.50;99.90
28069;DHT22;15382;47.578;8.086;2022-11-20T00:54:55;5.40;99.90
28069;DHT22;15382;47.578;8.086;2022-11-20T01:04:55;5.30;99.90
28069;DHT22;15382;47.578;8.086;2022-11-20T01:14:56;5.30;99.90
28069;DHT22;15382;47.578;8.086;2022-11-20T01:24:57;5.20;99.90
28069;DHT22;15382;47.578;8.086;2022-11-20T01:34:57;5.20;99.90
28069;DHT22;15382;47.578;8.086;2022-11-20T01:44:59;5.10;99.90
28069;DHT22;15382;47.578;8.086;2022-11-20T01:55:08;5.10;99.90
28069;DHT22;15382;47.578;8.086;2022-11-20T02:05:18;5.10;99.90
28069;DHT22;15382;47.578;8.086;2022-11-20T02:15:19;5.10;99.90
28069;DHT22;15382;47.578;8.086;2022-11-20T02:25:21;5.10;99.90
28069;DHT22;15382;47.578;8.086;2022-11-20T02:45:24;5.20;99.90
28069;DHT22;15382;47.578;8.086;2022-11-20T02:55:25;5.20;99.90
28069;DHT22;15382;47.578;8.086;2022-11-20T03:05:25;5.10;99.90
28069;DHT22;15382;47.578;8.086;2022-11-20T03:15:26;5.10;99.90
28069;DHT22;15382;47.578;8.086;2022-11-20T03:25:27;5.20;99.90
28069;DHT22;15382;47.578;8.086;2022-11-20T03:35:28;5.10;99.90
28069;DHT22;15382;47.578;8.086;2022-11-20T03:45:28;5.10;99.90
28069;DHT22;15382;47.578;8.086;2022-11-20T03:55:29;5.10;99.90
28069;DHT22;15382;47.578;8.086;2022-11-20T04:05:30;5.10;99.90
28069;DHT22;15382;47.578;8.086;2022-11-20T04:15:31;5.20;99.90
28069;DHT22;15382;47.578;8.086;2022-11-20T04:25:32;5.10;99.90
28069;DHT22;15382;47.578;8.086;2022-11-20T04:35:37;5.00;99.90
28069;DHT22;15382;47.578;8.086;2022-11-20T04:45:37;5.00;99.90
28069;DHT22;15382;47.578;8.086;2022-11-20T04:55:38;4.90;99.90
28069;DHT22;15382;47.578;8.086;2022-11-20T05:05:39;5.00;99.90
28069;DHT22;15382;47.578;8.086;2022-11-20T05:15:40;5.00;99.90
28069;DHT22;15382;47.578;8.086;2022-11-20T05:25:40;4.90;99.90
28069;DHT22;15382;47.578;8.086;2022-11-20T05:35:41;4.90;99.90
28069;DHT22;15382;47.578;8.086;2022-11-20T05:45:42;4.80;99.90
28069;DHT22;15382;47.578;8.086;2022-11-20T05:55:43;4.70;99.90
28069;DHT22;15382;47.578;8.086;2022-11-20T06:05:43;4.70;99.90
28069;DHT22;15382;47.578;8.086;2022-11-20T06:15:51;4.70;99.90
28069;DHT22;15382;47.578;8.086;2022-11-20T06:25:52;4.80;99.90
28069;DHT22;15382;47.578;8.086;2022-11-20T06:35:57;4.80;99.90
28069;DHT22;15382;47.578;8.086;2022-11-20T06:45:58;4.80;99.90
28069;DHT22;15382;47.578;8.086;2022-11-20T06:56:00;4.90;99.90
28069;DHT22;15382;47.578;8.086;2022-11-20T07:06:01;4.90;99.90
28069;DHT22;15382;47.578;8.086;2022-11-20T07:16:04;4.90;99.90
28069;DHT22;15382;47.578;8.086;2022-11-20T07:26:07;5.00;99.90
28069;DHT22;15382;47.578;8.086;2022-11-20T07:36:08;5.10;99.90
28069;DHT22;15382;47.578;8.086;2022-11-20T07:46:09;5.10;99.90
28069;DHT22;15382;47.578;8.086;2022-11-20T07:56:10;5.30;99.90
28069;DHT22;15382;47.578;8.086;2022-11-20T08:06:11;6.10;99.90
28069;DHT22;15382;47.578;8.086;2022-11-20T08:16:12;7.40;99.90
28069;DHT22;15382;47.578;8.086;2022-11-20T08:26:12;8.10;99.90
28069;DHT22;15382;47.578;8.086;2022-11-20T08:36:13;7.00;99.90
28069;DHT22;15382;47.578;8.086;2022-11-20T08:46:14;6.80;99.90
28069;DHT22;15382;47.578;8.086;2022-11-20T08:56:15;6.70;99.90
28069;DHT22;15382;47.578;8.086;2022-11-20T09:06:17;6.50;99.90
28069;DHT22;15382;47.578;8.086;2022-11-20T09:16:18;6.50;99.90
28069;DHT22;15382;47.578;8.086;2022-11-20T09:26:19;6.50;99.90
28069;DHT22;15382;47.578;8.086;2022-11-20T09:36:19;6.70;99.90
28069;DHT22;15382;47.578;8.086;2022-11-20T09:46:26;6.90;99.90
28069;DHT22;15382;47.578;8.086;2022-11-20T09:56:29;7.00;99.90
28069;DHT22;15382;47.578;8.086;2022-11-20T10:06:39;7.00;99.90
28069;DHT22;15382;47.578;8.086;2022-11-20T10:37:19;7.20;99.90
28069;DHT22;15382;47.578;8.086;2022-11-20T10:47:22;7.30;99.90
28069;DHT22;15382;47.578;8.086;2022-11-20T11:07:55;7.40;99.90
28069;DHT22;15382;47.578;8.086;2022-11-20T11:17:56;7.40;99.90
28069;DHT22;15382;47.578;8.086;2022-11-20T11:27:58;7.10;99.90
28069;DHT22;15382;47.578;8.086;2022-11-20T11:38:10;7.00;99.90
28069;DHT22;15382;47.578;8.086;2022-11-20T11:48:13;6.90;99.90
28069;DHT22;15382;47.578;8.086;2022-11-20T11:58:43;7.00;99.90
28069;DHT22;15382;47.578;8.086;2022-11-20T12:09:02;7.00;99.90
28069;DHT22;15382;47.578;8.086;2022-11-20T12:19:10;6.90;99.90
28069;DHT22;15382;47.578;8.086;2022-11-20T12:39:34;8.00;99.90
28069;DHT22;15382;47.578;8.086;2022-11-20T13:00:02;10.00;99.90
28069;DHT22;15382;47.578;8.086;2022-11-20T13:10:43;9.20;99.90
28069;DHT22;15382;47.578;8.086;2022-11-20T13:20:46;8.90;99.90
28069;DHT22;15382;47.578;8.086;2022-11-20T13:30:50;8.50;99.90
28069;DHT22;15382;47.578;8.086;2022-11-20T13:51:05;8.10;99.90
28069;DHT22;15382;47.578;8.086;2022-11-20T14:01:18;8.20;99.90
28069;DHT22;15382;47.578;8.086;2022-11-20T14:11:23;8.50;99.90
28069;DHT22;15382;47.578;8.086;2022-11-20T14:21:29;8.70;99.90
28069;DHT22;15382;47.578;8.086;2022-11-20T14:31:30;10.10;99.90
28069;DHT22;15382;47.578;8.086;2022-11-20T14:41:31;9.90;99.90
28069;DHT22;15382;47.578;8.086;2022-11-20T14:51:35;9.30;99.90
28069;DHT22;15382;47.578;8.086;2022-11-20T15:01:38;8.90;99.90
28069;DHT22;15382;47.578;8.086;2022-11-20T15:11:39;8.80;99.90
28069;DHT22;15382;47.578;8.086;2022-11-20T15:21:51;8.10;99.90
28069;DHT22;15382;47.578;8.086;2022-11-20T15:31:51;7.70;99.90
28069;DHT22;15382;47.578;8.086;2022-11-20T15:41:54;7.20;99.90
28069;DHT22;15382;47.578;8.086;2022-11-20T15:51:55;7.00;99.90
28069;DHT22;15382;47.578;8.086;2022-11-20T16:01:56;6.70;99.90
28069;DHT22;15382;47.578;8.086;2022-11-20T16:11:56;6.40;99.90
28069;DHT22;15382;47.578;8.086;2022-11-20T16:22:00;6.20;99.90
28069;DHT22;15382;47.578;8.086;2022-11-20T16:32:01;5.90;99.90
28069;DHT22;15382;47.578;8.086;2022-11-20T16:42:03;5.60;99.90
28069;DHT22;15382;47.578;8.086;2022-11-20T16:52:04;5.50;99.90
28069;DHT22;15382;47.578;8.086;2022-11-20T17:02:04;5.50;99.90
28069;DHT22;15382;47.578;8.086;2022-11-20T17:12:05;5.80;99.90
28069;DHT22;15382;47.578;8.086;2022-11-20T17:22:06;5.90;99.90
28069;DHT22;15382;47.578;8.086;2022-11-20T17:32:07;6.00;99.90
28069;DHT22;15382;47.578;8.086;2022-11-20T17:42:07;5.80;99.90
28069;DHT22;15382;47.578;8.086;2022-11-20T17:52:26;5.80;99.90
28069;DHT22;15382;47.578;8.086;2022-11-20T18:02:27;5.90;99.90
28069;DHT22;15382;47.578;8.086;2022-11-20T18:12:28;5.90;99.90
28069;DHT22;15382;47.578;8.086;2022-11-20T18:22:28;6.00;99.90
28069;DHT22;15382;47.578;8.086;2022-11-20T18:32:29;6.10;99.90
28069;DHT22;15382;47.578;8.086;2022-11-20T18:42:30;6.10;99.90
28069;DHT22;15382;47.578;8.086;2022-11-20T18:52:49;6.20;99.90
28069;DHT22;15382;47.578;8.086;2022-11-20T19:02:53;6.00;99.90
28069;DHT22;15382;47.578;8.086;2022-11-20T19:12:54;5.90;99.90
28069;DHT22;15382;47.578;8.086;2022-11-20T19:22:55;5.80;99.90
28069;DHT22;15382;47.578;8.086;2022-11-20T19:32:55;5.70;99.90
28069;DHT22;15382;47.578;8.086;2022-11-20T19:42:57;5.60;99.90
28069;DHT22;15382;47.578;8.086;2022-11-20T19:52:58;5.40;99.90
28069;DHT22;15382;47.578;8.086;2022-11-20T20:02:59;5.30;99.90
28069;DHT22;15382;47.578;8.086;2022-11-20T20:13:00;5.10;99.90
28069;DHT22;15382;47.578;8.086;2022-11-20T20:23:01;5.10;99.90
28069;DHT22;15382;47.578;8.086;2022-11-20T20:33:03;5.00;99.90
28069;DHT22;15382;47.578;8.086;2022-11-20T20:43:04;4.90;99.90
28069;DHT22;15382;47.578;8.086;2022-11-20T20:53:05;4.90;99.90
28069;DHT22;15382;47.578;8.086;2022-11-20T21:03:06;4.90;99.90
28069;DHT22;15382;47.578;8.086;2022-11-20T21:13:06;4.90;99.90
28069;DHT22;15382;47.578;8.086;2022-11-20T21:23:09;4.80;99.90
28069;DHT22;15382;47.578;8.086;2022-11-20T21:33:09;4.80;99.90
28069;DHT22;15382;47.578;8.086;2022-11-20T21:43:10;4.80;99.90
28069;DHT22;15382;47.578;8.086;2022-11-20T21:53:11;4.70;99.90
28069;DHT22;15382;47.578;8.086;2022-11-20T22:03:12;4.70;99.90
28069;DHT22;15382;47.578;8.086;2022-11-20T22:13:12;4.70;99.90
28069;DHT22;15382;47.578;8.086;2022-11-20T22:23:33;4.60;99.90
28069;DHT22;15382;47.578;8.086;2022-11-20T22:33:35;4.60;99.90
28069;DHT22;15382;47.578;8.086;2022-11-20T22:43:36;4.50;99.90
28069;DHT22;15382;47.578;8.086;2022-11-20T22:53:37;4.50;99.90
28069;DHT22;15382;47.578;8.086;2022-11-20T23:03:40;4.60;99.90
28069;DHT22;15382;47.578;8.086;2022-11-20T23:13:42;4.60;99.90
28069;DHT22;15382;47.578;8.086;2022-11-20T23:23:48;4.60;99.90
28069;DHT22;15382;47.578;8.086;2022-11-20T23:33:50;4.60;99.90
28069;DHT22;15382;47.578;8.086;2022-11-20T23:43:52;4.60;99.90
28069;DHT22;15382;47.578;8.086;2022-11-20T23:53:52;4.60;99.90
